createdAt,value
2019-02-25T00:02:44.197Z,18.2
2019-02-25T00:05:50.163Z,18.2
2019-02-25T00:08:56.164Z,18.2
2019-02-25T00:12:02.250Z,18.2
2019-02-25T00:15:08.166Z,18.2
2019-02-25T00:18:14.118Z,18.2
2019-02-25T00:21:20.189Z,18.1
2019-02-25T00:24:26.124Z,18.1
2019-02-25T00:27:32.087Z,18.1
2019-02-25T00:30:38.012Z,18.1
2019-02-25T00:33:44.024Z,18.1
2019-02-25T00:36:50.108Z,18.1
2019-02-25T00:39:56.060Z,18.1
2019-02-25T00:43:02.188Z,18.1
2019-02-25T00:46:08.103Z,18.1
2019-02-25T00:49:14.135Z,18.1
2019-02-25T00:52:20.029Z,18.1
2019-02-25T00:55:26.140Z,18.1
2019-02-25T00:58:32.064Z,18
2019-02-25T01:01:37.939Z,18
2019-02-25T01:04:43.806Z,18
2019-02-25T01:07:49.782Z,18
2019-02-25T01:10:55.747Z,18
2019-02-25T01:14:01.698Z,18
2019-02-25T01:17:07.601Z,18
2019-02-25T01:20:13.482Z,18
2019-02-25T01:23:19.435Z,18.1
2019-02-25T01:26:28.167Z,18.1
2019-02-25T01:29:34.113Z,18.1
2019-02-25T01:32:40.690Z,18.1
2019-02-25T01:35:46.688Z,18.1
2019-02-25T01:38:52.697Z,18.1
2019-02-25T01:41:58.640Z,18.1
2019-02-25T01:45:04.616Z,18.1
2019-02-25T01:48:10.615Z,18.2
2019-02-25T01:51:16.544Z,18.2
2019-02-25T01:54:24.714Z,18.2
2019-02-25T01:57:30.619Z,18.2
2019-02-25T02:00:36.562Z,18.3
2019-02-25T02:03:42.481Z,18.3
2019-02-25T02:06:48.411Z,18.3
2019-02-25T02:09:54.362Z,18.3
2019-02-25T02:13:00.298Z,18.4
2019-02-25T02:16:15.874Z,18.4
2019-02-25T02:19:21.827Z,18.4
2019-02-25T02:22:27.727Z,18.4
2019-02-25T02:25:33.627Z,18.5
2019-02-25T02:28:39.537Z,18.5
2019-02-25T02:31:45.484Z,18.5
2019-02-25T02:34:51.493Z,18.6
2019-02-25T02:37:57.563Z,18.6
2019-02-25T02:41:03.557Z,18.7
2019-02-25T02:44:09.522Z,18.7
2019-02-25T02:47:15.383Z,18.8
2019-02-25T02:50:21.315Z,18.8
2019-02-25T02:53:27.310Z,18.8
2019-02-25T02:56:33.367Z,18.8
2019-02-25T02:59:39.314Z,18.9
2019-02-25T03:02:45.373Z,18.9
2019-02-25T03:05:51.346Z,19
2019-02-25T03:08:57.506Z,19
2019-02-25T03:12:03.470Z,19
2019-02-25T03:15:09.331Z,19
2019-02-25T03:18:15.348Z,19.1
2019-02-25T03:21:21.423Z,19.1
2019-02-25T03:24:27.433Z,19.1
2019-02-25T03:27:33.528Z,19.1
2019-02-25T03:30:39.476Z,19.2
2019-02-25T03:33:45.594Z,19.2
2019-02-25T03:36:51.659Z,19.2
2019-02-25T03:39:57.577Z,19.2
2019-02-25T03:43:03.586Z,19.3
2019-02-25T03:46:09.829Z,19.3
2019-02-25T03:49:15.742Z,19.4
2019-02-25T03:52:21.735Z,19.4
2019-02-25T03:55:27.733Z,19.5
2019-02-25T03:58:33.770Z,19.5
2019-02-25T04:01:39.698Z,19.6
2019-02-25T04:04:45.772Z,19.6
2019-02-25T04:07:51.662Z,19.7
2019-02-25T04:10:57.611Z,19.7
2019-02-25T04:14:03.540Z,19.8
2019-02-25T04:17:09.594Z,19.8
2019-02-25T04:20:15.671Z,19.9
2019-02-25T04:23:21.660Z,19.9
2019-02-25T04:26:27.566Z,19.9
2019-02-25T04:29:33.518Z,20
2019-02-25T04:32:39.648Z,20
2019-02-25T04:35:48.574Z,20
2019-02-25T04:38:54.479Z,20.1
2019-02-25T04:42:00.485Z,20.1
2019-02-25T04:45:06.599Z,20.1
2019-02-25T04:48:12.668Z,20.1
2019-02-25T04:51:18.645Z,20.2
2019-02-25T04:54:24.632Z,20.2
2019-02-25T04:57:30.705Z,20.2
2019-02-25T05:00:36.707Z,20.3
2019-02-25T05:03:42.615Z,20.3
2019-02-25T05:06:48.729Z,20.3
2019-02-25T05:09:54.657Z,20.4
2019-02-25T05:13:00.684Z,20.4
2019-02-25T05:16:06.620Z,20.4
2019-02-25T05:19:12.594Z,20.4
2019-02-25T05:22:18.542Z,20.5
2019-02-25T05:25:24.531Z,20.5
2019-02-25T05:28:30.500Z,20.5
2019-02-25T05:31:36.457Z,20.5
2019-02-25T05:34:42.385Z,20.5
2019-02-25T05:37:48.358Z,20.6
2019-02-25T05:40:54.560Z,20.6
2019-02-25T05:44:00.497Z,20.7
2019-02-25T05:47:09.161Z,20.7
2019-02-25T05:50:15.091Z,20.7
2019-02-25T05:53:21.010Z,20.8
2019-02-25T05:56:26.955Z,20.9
2019-02-25T05:59:32.856Z,20.9
2019-02-25T06:02:38.812Z,21
2019-02-25T06:05:44.761Z,21
2019-02-25T06:08:50.759Z,21.1
2019-02-25T06:11:56.832Z,21.2
2019-02-25T06:15:02.923Z,21.3
2019-02-25T06:18:08.917Z,21.4
2019-02-25T06:21:17.559Z,21.4
2019-02-25T06:24:25.774Z,21.5
2019-02-25T06:27:31.900Z,21.6
2019-02-25T06:30:37.786Z,21.7
2019-02-25T06:33:43.718Z,21.8
2019-02-25T06:36:51.833Z,21.8
2019-02-25T06:39:57.781Z,21.9
2019-02-25T06:43:04.088Z,22
2019-02-25T06:46:10.112Z,22
2019-02-25T06:49:16.196Z,22.1
2019-02-25T06:52:26.515Z,22.2
2019-02-25T06:55:32.503Z,22.3
2019-02-25T06:58:38.595Z,22.4
2019-02-25T07:01:44.600Z,22.5
2019-02-25T07:04:50.518Z,22.5
2019-02-25T07:07:56.588Z,22.6
2019-02-25T07:11:02.527Z,22.7
2019-02-25T07:14:08.461Z,22.8
2019-02-25T07:17:14.297Z,22.9
2019-02-25T07:20:20.294Z,22.9
2019-02-25T07:23:26.261Z,23
2019-02-25T07:26:32.218Z,23.1
2019-02-25T07:29:38.185Z,23.2
2019-02-25T07:32:44.200Z,23.2
2019-02-25T07:35:50.176Z,23.2
2019-02-25T07:38:56.320Z,23.3
2019-02-25T07:42:02.288Z,23.3
2019-02-25T07:45:08.289Z,23.4
2019-02-25T07:48:14.301Z,23.5
2019-02-25T07:51:20.207Z,23.6
2019-02-25T07:54:26.143Z,23.6
2019-02-25T07:57:32.130Z,23.7
2019-02-25T08:00:38.152Z,23.7
2019-02-25T08:03:44.045Z,23.7
2019-02-25T08:06:49.982Z,23.7
2019-02-25T08:09:55.962Z,23.8
2019-02-25T08:13:02.173Z,23.9
2019-02-25T08:16:08.269Z,23.9
2019-02-25T08:19:14.247Z,24
2019-02-25T08:22:20.203Z,24
2019-02-25T08:25:28.209Z,24
2019-02-25T08:28:34.132Z,24
2019-02-25T08:31:42.257Z,24.1
2019-02-25T08:34:48.664Z,24.1
2019-02-25T08:37:56.679Z,24.2
2019-02-25T08:41:02.921Z,24.2
2019-02-25T08:44:09.059Z,24.3
2019-02-25T08:47:15.357Z,24.3
2019-02-25T08:50:21.284Z,24.4
2019-02-25T08:53:27.399Z,24.4
2019-02-25T08:56:35.438Z,24.4
2019-02-25T08:59:41.400Z,24.5
2019-02-25T09:02:47.463Z,24.5
2019-02-25T09:05:53.588Z,24.5
2019-02-25T09:08:59.505Z,24.5
2019-02-25T09:12:05.414Z,24.6
2019-02-25T09:15:11.320Z,24.6
2019-02-25T09:18:17.280Z,24.7
2019-02-25T09:21:31.319Z,24.7
2019-02-25T09:24:37.753Z,24.7
2019-02-25T09:27:45.809Z,24.6
2019-02-25T09:30:52.034Z,24.7
2019-02-25T09:33:58.660Z,24.7
2019-02-25T09:37:04.597Z,24.7
2019-02-25T09:40:10.547Z,24.7
2019-02-25T09:43:18.631Z,24.8
2019-02-25T09:46:26.754Z,24.8
2019-02-25T09:49:32.834Z,24.8
2019-02-25T09:52:38.858Z,24.8
2019-02-25T09:55:45.135Z,24.8
2019-02-25T09:58:52.017Z,24.9
2019-02-25T10:01:57.981Z,24.8
2019-02-25T10:05:04.131Z,24.7
2019-02-25T10:08:10.049Z,24.8
2019-02-25T10:11:16.068Z,24.8
2019-02-25T10:14:22.017Z,24.8
2019-02-25T10:17:28.169Z,24.9
2019-02-25T10:20:34.094Z,24.8
2019-02-25T10:23:40.535Z,24.9
2019-02-25T10:26:46.479Z,24.8
2019-02-25T10:29:52.419Z,24.9
2019-02-25T10:32:58.291Z,24.8
2019-02-25T10:36:06.304Z,24.9
2019-02-25T10:39:13.029Z,24.9
2019-02-25T10:42:24.720Z,24.9
2019-02-25T10:45:41.144Z,24.9
2019-02-25T10:48:54.190Z,24.9
2019-02-25T10:52:17.253Z,25
2019-02-25T10:55:23.431Z,25
2019-02-25T10:58:31.077Z,25
2019-02-25T11:01:41.354Z,25
2019-02-25T11:04:53.500Z,25.1
2019-02-25T11:08:03.245Z,25
2019-02-25T11:11:18.691Z,25.1
2019-02-25T11:14:33.277Z,25.2
2019-02-25T11:17:49.257Z,25.2
2019-02-25T11:21:01.260Z,25.3
2019-02-25T11:24:16.462Z,25.3
2019-02-25T11:27:31.232Z,25.3
2019-02-25T11:30:44.967Z,25.3
2019-02-25T11:33:58.866Z,25.3
2019-02-25T11:37:14.332Z,25.4
2019-02-25T11:40:31.137Z,25.4
2019-02-25T11:43:44.115Z,25.3
2019-02-25T11:46:59.523Z,25.4
2019-02-25T11:50:05.631Z,25.3
2019-02-25T11:53:11.574Z,25.3
2019-02-25T11:56:17.579Z,25.3
2019-02-25T11:59:23.478Z,25.4
2019-02-25T12:02:31.423Z,25.3
2019-02-25T12:05:37.422Z,25.3
2019-02-25T12:08:45.426Z,25.3
2019-02-25T12:11:51.392Z,25.2
2019-02-25T12:14:57.342Z,25.2
2019-02-25T12:18:03.401Z,25.2
2019-02-25T12:21:09.589Z,25.2
2019-02-25T12:24:16.613Z,25.1
2019-02-25T12:27:22.683Z,25.1
2019-02-25T12:30:28.579Z,25.1
2019-02-25T12:33:37.349Z,25.1
2019-02-25T12:36:44.122Z,25.1
2019-02-25T12:39:50.125Z,25.1
2019-02-25T12:42:56.194Z,25.1
2019-02-25T12:46:02.140Z,25.1
2019-02-25T12:49:08.121Z,25.1
2019-02-25T12:52:14.049Z,25.2
2019-02-25T12:55:19.987Z,25.2
2019-02-25T12:58:25.948Z,25.2
2019-02-25T13:01:32.007Z,25.2
2019-02-25T13:04:40.998Z,25.2
2019-02-25T13:07:47.028Z,25.3
2019-02-25T13:10:52.876Z,25.4
2019-02-25T13:13:58.893Z,25.3
2019-02-25T13:17:04.840Z,25.3
2019-02-25T13:20:10.886Z,25.3
2019-02-25T13:23:16.851Z,25.3
2019-02-25T13:26:22.891Z,25.3
2019-02-25T13:29:40.663Z,25.2
2019-02-25T13:32:46.550Z,25.2
2019-02-25T13:35:52.710Z,25.2
2019-02-25T13:39:00.946Z,25.2
2019-02-25T13:42:07.063Z,25.2
2019-02-25T13:45:13.227Z,25.2
2019-02-25T13:48:19.547Z,25.3
2019-02-25T13:51:25.613Z,25.2
2019-02-25T13:54:31.719Z,25.2
2019-02-25T13:57:37.907Z,25.2
2019-02-25T14:00:44.062Z,25.2
2019-02-25T14:03:50.408Z,25.3
2019-02-25T14:06:56.481Z,25.4
2019-02-25T14:10:02.862Z,25.4
2019-02-25T14:13:09.090Z,25.5
2019-02-25T14:16:15.172Z,25.4
2019-02-25T14:19:22.368Z,25.4
2019-02-25T14:22:28.575Z,25.4
2019-02-25T14:25:38.316Z,25.5
2019-02-25T14:28:48.641Z,25.5
2019-02-25T14:31:55.934Z,25.5
2019-02-25T14:35:02.120Z,25.5
2019-02-25T14:38:14.733Z,25.5
2019-02-25T14:41:39.177Z,25.4
2019-02-25T14:44:45.970Z,25.3
2019-02-25T14:48:13.473Z,25.3
2019-02-25T14:51:38.378Z,25.3
2019-02-25T14:54:45.840Z,25.2
2019-02-25T14:57:52.168Z,25.2
2019-02-25T15:01:21.034Z,25.2
2019-02-25T15:04:37.328Z,25.1
2019-02-25T15:07:49.042Z,25.1
2019-02-25T15:11:00.463Z,25.1
2019-02-25T15:14:19.213Z,25.1
2019-02-25T15:17:25.523Z,25
2019-02-25T15:20:31.648Z,25
2019-02-25T15:23:37.761Z,25
2019-02-25T15:26:43.889Z,25
2019-02-25T15:29:50.811Z,24.9
2019-02-25T15:32:58.776Z,25
2019-02-25T15:36:06.198Z,24.9
2019-02-25T15:39:26.411Z,24.9
2019-02-25T15:42:36.047Z,24.8
2019-02-25T15:45:50.546Z,24.8
2019-02-25T15:48:56.552Z,24.8
2019-02-25T15:52:04.889Z,24.8
2019-02-25T15:55:23.408Z,24.8
2019-02-25T15:58:32.556Z,24.7
2019-02-25T16:01:38.647Z,24.7
2019-02-25T16:04:44.733Z,24.7
2019-02-25T16:07:51.863Z,24.7
2019-02-25T16:11:06.428Z,24.6
2019-02-25T16:14:21.859Z,24.6
2019-02-25T16:17:35.131Z,24.6
2019-02-25T16:20:46.148Z,24.5
2019-02-25T16:23:59.580Z,24.5
2019-02-25T16:27:23.595Z,24.5
2019-02-25T16:30:32.801Z,24.5
2019-02-25T16:33:41.157Z,24.5
2019-02-25T16:36:53.688Z,24.5
2019-02-25T16:40:10.536Z,24.5
2019-02-25T16:43:18.927Z,24.5
2019-02-25T16:46:25.190Z,24.4
2019-02-25T16:49:36.108Z,24.4
2019-02-25T16:52:45.384Z,24.4
2019-02-25T16:55:56.509Z,24.4
2019-02-25T16:59:10.940Z,24.4
2019-02-25T17:02:30.088Z,24.3
2019-02-25T17:05:50.481Z,24.3
2019-02-25T17:08:57.770Z,24.3
2019-02-25T17:12:04.943Z,24.3
2019-02-25T17:15:14.327Z,24.3
2019-02-25T17:18:20.376Z,24.3
2019-02-25T17:21:28.040Z,24.3
2019-02-25T17:24:35.201Z,24.2
2019-02-25T17:27:45.642Z,24.1
2019-02-25T17:30:52.654Z,24.1
2019-02-25T17:33:58.812Z,24.1
2019-02-25T17:37:05.927Z,24.1
2019-02-25T17:40:20.837Z,24.1
2019-02-25T17:43:29.140Z,24.1
2019-02-25T17:46:45.520Z,24.1
2019-02-25T17:49:51.732Z,24
2019-02-25T17:53:10.321Z,24
2019-02-25T17:56:20.221Z,24
2019-02-25T17:59:34.217Z,24
2019-02-25T18:02:42.336Z,23.9
2019-02-25T18:05:48.443Z,23.9
2019-02-25T18:08:55.378Z,23.9
2019-02-25T18:12:08.132Z,23.8
2019-02-25T18:15:16.192Z,23.8
2019-02-25T18:18:33.329Z,23.8
2019-02-25T18:21:58.892Z,23.8
2019-02-25T18:25:05.093Z,23.8
2019-02-25T18:28:12.742Z,23.7
2019-02-25T18:31:31.015Z,23.7
2019-02-25T18:34:38.634Z,23.7
2019-02-25T18:37:45.541Z,23.7
2019-02-25T18:40:53.945Z,23.6
2019-02-25T18:44:11.330Z,23.6
2019-02-25T18:47:22.928Z,23.6
2019-02-25T18:50:32.708Z,23.5
2019-02-25T18:53:41.113Z,23.5
2019-02-25T18:56:49.145Z,23.5
2019-02-25T18:59:59.161Z,23.5
2019-02-25T19:03:11.058Z,23.4
2019-02-25T19:06:17.707Z,23.4
2019-02-25T19:09:32.266Z,23.3
2019-02-25T19:12:50.007Z,23.3
2019-02-25T19:16:04.743Z,23.2
2019-02-25T19:19:19.295Z,23.1
2019-02-25T19:22:25.623Z,23
2019-02-25T19:25:42.457Z,23
2019-02-25T19:28:50.099Z,22.9
2019-02-25T19:32:03.305Z,22.9
2019-02-25T19:35:10.077Z,22.8
2019-02-25T19:38:17.746Z,22.7
2019-02-25T19:41:29.504Z,22.7
2019-02-25T19:44:36.968Z,22.6
2019-02-25T19:47:44.240Z,22.6
2019-02-25T19:50:51.509Z,22.5
2019-02-25T19:54:09.841Z,22.5
2019-02-25T19:57:25.989Z,22.4
2019-02-25T20:00:35.961Z,22.4
2019-02-25T20:03:42.630Z,22.4
2019-02-25T20:06:53.690Z,22.3
2019-02-25T20:10:05.765Z,22.2
2019-02-25T20:13:16.031Z,22.2
2019-02-25T20:16:28.133Z,22.1
2019-02-25T20:19:39.187Z,22.1
2019-02-25T20:22:54.098Z,22.1
2019-02-25T20:26:13.337Z,22
2019-02-25T20:29:29.965Z,22
2019-02-25T20:32:48.526Z,22
2019-02-25T20:35:55.939Z,21.9
2019-02-25T20:39:07.893Z,21.9
2019-02-25T20:42:15.488Z,21.9
2019-02-25T20:45:35.824Z,21.8
2019-02-25T20:48:44.422Z,21.8
2019-02-25T20:52:02.969Z,21.7
2019-02-25T20:55:10.863Z,21.7
2019-02-25T20:58:20.505Z,21.6
2019-02-25T21:01:28.744Z,21.6
2019-02-25T21:04:53.357Z,21.6
2019-02-25T21:08:03.872Z,21.6
2019-02-25T21:11:11.027Z,21.5
2019-02-25T21:14:20.558Z,21.5
2019-02-25T21:17:30.772Z,21.5
2019-02-25T21:20:45.139Z,21.4
2019-02-25T21:24:01.156Z,21.4
2019-02-25T21:27:17.612Z,21.4
2019-02-25T21:30:37.074Z,21.3
2019-02-25T21:33:56.538Z,21.3
2019-02-25T21:37:05.740Z,21.3
2019-02-25T21:40:11.985Z,21.2
2019-02-25T21:43:18.671Z,21.2
2019-02-25T21:46:36.238Z,21.2
2019-02-25T21:49:42.148Z,21.2
2019-02-25T21:52:48.070Z,21.1
2019-02-25T21:55:55.426Z,21.1
2019-02-25T21:59:10.483Z,21.1
2019-02-25T22:02:21.691Z,21.1
2019-02-25T22:05:27.675Z,21
2019-02-25T22:08:36.050Z,21
2019-02-25T22:11:42.095Z,21
2019-02-25T22:14:49.739Z,21
2019-02-25T22:17:57.688Z,21
2019-02-25T22:21:16.510Z,20.9
2019-02-25T22:24:29.048Z,20.9
2019-02-25T22:27:45.570Z,20.9
2019-02-25T22:30:52.229Z,20.9
2019-02-25T22:33:59.665Z,20.8
2019-02-25T22:37:16.527Z,20.8
2019-02-25T22:40:34.759Z,20.8
2019-02-25T22:43:46.358Z,20.8
2019-02-25T22:46:53.844Z,20.8
2019-02-25T22:49:59.757Z,20.7
2019-02-25T22:53:15.819Z,20.7
2019-02-25T22:56:23.321Z,20.7
2019-02-25T22:59:35.483Z,20.7
2019-02-25T23:02:43.434Z,20.7
2019-02-25T23:06:00.539Z,20.6
2019-02-25T23:09:14.048Z,20.6
2019-02-25T23:12:30.703Z,20.6
2019-02-25T23:15:37.073Z,20.6
2019-02-25T23:18:54.160Z,20.6
2019-02-25T23:22:00.172Z,20.6
2019-02-25T23:25:06.239Z,20.5
2019-02-25T23:28:12.124Z,20.6
2019-02-25T23:31:23.093Z,20.5
2019-02-25T23:34:33.304Z,20.5
2019-02-25T23:37:58.521Z,20.5
2019-02-25T23:41:07.606Z,20.5
2019-02-25T23:44:22.124Z,20.5
2019-02-25T23:47:31.616Z,20.4
2019-02-25T23:50:44.792Z,20.4
2019-02-25T23:54:02.083Z,20.4
2019-02-25T23:57:14.666Z,20.4
